Napanoch, New York
Current Conditions -  °F | °C
As of 2:54 AM on Saturday 20 Dec 2014 (Local Time) from KMGJ Reporting Station
Overcast Overcast  
Wind Chill: 22°   Ceiling: 2500
Heat Index: 28°   Visibility: 10mi
Dew Point: 22°   Wind: 6mph
Humidity: 78%   Direction: 20°NNE
Pressure: 30.18"   Gusts: NA
Location:  41.75°N, 74.37°W
Report Text: KMGJ 200754Z AUTO 02005KT 10SM OVC025 M02/M06 A3018 RMK AO2 SLP224 T10221056 TSNO
Loading
Personal Weather Stations






























Interactive Weather Map New forecast layout! Learn more

10-Day Weather Forecast

Advertisements
Track Severe Weather on mobile